createdAt,value
2023-04-09T00:00:52.718Z,11.00
2023-04-09T00:03:59.148Z,13.22
2023-04-09T00:07:05.381Z,12.95
2023-04-09T00:10:11.632Z,10.63
2023-04-09T00:13:22.760Z,12.10
2023-04-09T00:16:24.996Z,11.22
2023-04-09T00:19:31.440Z,11.30
2023-04-09T00:22:37.592Z,14.18
2023-04-09T00:25:42.678Z,12.93
2023-04-09T00:28:48.023Z,9.45
2023-04-09T00:31:54.401Z,12.68
2023-04-09T00:35:00.137Z,11.55
2023-04-09T00:38:07.296Z,10.50
2023-04-09T00:41:14.319Z,12.55
2023-04-09T00:44:20.933Z,11.03
2023-04-09T00:47:27.607Z,11.45
2023-04-09T00:50:33.124Z,9.05
2023-04-09T00:53:39.013Z,10.98
2023-04-09T00:56:45.429Z,27.00
2023-04-09T00:59:53.804Z,16.57
2023-04-09T01:03:00.849Z,9.95
2023-04-09T01:06:30.755Z,9.65
2023-04-09T01:09:50.608Z,11.68
2023-04-09T01:13:35.671Z,11.25
2023-04-09T01:16:42.060Z,8.78
2023-04-09T01:20:05.870Z,8.60
2023-04-09T01:23:33.818Z,9.20
2023-04-09T01:26:53.005Z,8.68
2023-04-09T01:30:02.751Z,8.88
2023-04-09T01:33:08.942Z,11.05
2023-04-09T01:36:15.106Z,9.10
2023-04-09T01:39:22.503Z,11.73
2023-04-09T01:42:27.444Z,11.75
2023-04-09T01:45:34.448Z,9.83
2023-04-09T01:48:41.374Z,10.55
2023-04-09T01:51:47.993Z,10.48
2023-04-09T01:54:55.050Z,10.75
2023-04-09T01:58:01.306Z,9.68
2023-04-09T02:01:06.463Z,12.65
2023-04-09T02:04:19.565Z,9.93
2023-04-09T02:07:39.016Z,10.32
2023-04-09T02:10:46.417Z,9.40
2023-04-09T02:13:52.801Z,12.10
2023-04-09T02:16:58.784Z,9.95
2023-04-09T02:20:05.194Z,9.48
2023-04-09T02:23:10.563Z,12.50
2023-04-09T02:26:16.042Z,12.03
2023-04-09T02:29:23.041Z,8.85
2023-04-09T02:32:29.060Z,11.75
2023-04-09T02:35:36.866Z,10.88
2023-04-09T02:38:43.169Z,10.95
2023-04-09T02:41:51.877Z,12.70
2023-04-09T02:44:59.635Z,10.65
2023-04-09T02:48:06.191Z,8.73
2023-04-09T02:51:14.752Z,13.62
2023-04-09T02:54:21.228Z,15.23
2023-04-09T02:57:27.278Z,13.48
2023-04-09T03:00:34.984Z,11.53
2023-04-09T03:03:40.930Z,14.75
2023-04-09T03:06:48.275Z,11.50
2023-04-09T03:09:55.107Z,11.28
2023-04-09T03:13:01.145Z,11.30
2023-04-09T03:16:07.388Z,11.25
2023-04-09T03:19:14.239Z,13.88
2023-04-09T03:22:20.464Z,13.20
2023-04-09T03:25:27.736Z,10.58
2023-04-09T03:28:35.141Z,16.42
2023-04-09T03:31:41.837Z,14.18
2023-04-09T03:34:48.644Z,12.05
2023-04-09T03:37:55.585Z,10.88
2023-04-09T03:41:01.004Z,10.23
2023-04-09T03:44:08.401Z,13.35
2023-04-09T03:47:19.224Z,16.20
2023-04-09T03:50:27.735Z,14.40
2023-04-09T03:53:34.747Z,12.93
2023-04-09T03:56:41.192Z,16.60
2023-04-09T03:59:49.195Z,15.23
2023-04-09T04:02:56.845Z,13.18
2023-04-09T04:06:08.999Z,18.12
2023-04-09T04:09:34.030Z,15.83
2023-04-09T04:12:44.345Z,13.80
2023-04-09T04:15:58.824Z,16.62
2023-04-09T04:19:05.709Z,18.17
2023-04-09T04:22:13.067Z,14.23
2023-04-09T04:25:20.134Z,11.40
2023-04-09T04:28:27.604Z,14.70
2023-04-09T04:31:35.385Z,17.50
2023-04-09T04:34:42.730Z,16.70
2023-04-09T04:37:50.831Z,20.95
2023-04-09T04:40:58.204Z,13.40
2023-04-09T04:44:03.921Z,15.50
2023-04-09T04:47:13.236Z,19.12
2023-04-09T04:50:21.151Z,13.80
2023-04-09T04:53:33.019Z,15.40
2023-04-09T04:56:42.170Z,13.03
2023-04-09T05:00:05.396Z,11.70
2023-04-09T05:03:12.950Z,14.53
2023-04-09T05:06:27.063Z,14.03
2023-04-09T05:09:35.119Z,13.90
2023-04-09T05:12:40.212Z,14.43
2023-04-09T05:15:49.132Z,12.40
2023-04-09T05:18:55.415Z,10.85
2023-04-09T05:22:00.997Z,15.88
2023-04-09T05:25:06.616Z,14.00
2023-04-09T05:28:13.821Z,12.82
2023-04-09T05:31:22.222Z,13.62
2023-04-09T05:34:29.838Z,14.03
2023-04-09T05:37:37.467Z,16.17
2023-04-09T05:40:44.777Z,13.50
2023-04-09T05:43:51.549Z,15.05
2023-04-09T05:47:00.277Z,18.55
2023-04-09T05:50:09.032Z,15.80
2023-04-09T05:53:14.650Z,16.05
2023-04-09T05:56:29.654Z,17.27
2023-04-09T05:59:39.696Z,13.72
2023-04-09T06:02:47.499Z,15.78
2023-04-09T06:05:55.619Z,13.75
2023-04-09T06:09:02.225Z,13.53
2023-04-09T06:12:09.342Z,14.30
2023-04-09T06:15:15.171Z,13.45
2023-04-09T06:18:22.462Z,17.37
2023-04-09T06:21:28.520Z,16.67
2023-04-09T06:24:34.256Z,18.05
2023-04-09T06:27:40.378Z,16.27
2023-04-09T06:30:47.660Z,20.68
2023-04-09T06:33:56.096Z,17.90
2023-04-09T06:37:03.079Z,20.40
2023-04-09T06:40:08.995Z,19.65
2023-04-09T06:43:15.118Z,17.25
2023-04-09T06:46:24.725Z,16.02
2023-04-09T06:49:31.998Z,22.45
2023-04-09T06:52:39.995Z,21.77
2023-04-09T06:55:49.812Z,21.55
2023-04-09T06:58:56.502Z,14.95
2023-04-09T07:02:01.703Z,17.50
2023-04-09T07:05:08.897Z,16.37
2023-04-09T07:08:14.980Z,15.78
2023-04-09T07:11:24.952Z,22.42
2023-04-09T07:14:32.814Z,18.25
2023-04-09T07:17:40.472Z,21.62
2023-04-09T07:20:46.707Z,23.12
2023-04-09T07:23:53.612Z,19.57
2023-04-09T07:27:00.250Z,20.48
2023-04-09T07:30:06.698Z,18.35
2023-04-09T07:33:13.414Z,23.83
2023-04-09T07:36:18.953Z,18.70
2023-04-09T07:39:25.662Z,18.75
2023-04-09T07:42:33.395Z,15.50
2023-04-09T07:45:38.604Z,21.42
2023-04-09T07:48:47.144Z,21.42
2023-04-09T07:51:53.186Z,19.27
2023-04-09T07:54:59.852Z,20.27
2023-04-09T07:58:06.593Z,17.92
2023-04-09T08:01:13.850Z,15.83
2023-04-09T08:04:21.358Z,20.75
2023-04-09T08:07:27.464Z,21.68
2023-04-09T08:10:33.566Z,20.90
2023-04-09T08:13:40.417Z,19.32
2023-04-09T08:16:48.011Z,21.77
2023-04-09T08:19:54.343Z,19.85
2023-04-09T08:22:59.886Z,22.22
2023-04-09T08:26:06.880Z,22.60
2023-04-09T08:29:11.681Z,23.80
2023-04-09T08:32:18.295Z,26.52
2023-04-09T08:35:24.673Z,23.67
2023-04-09T08:38:32.391Z,23.15
2023-04-09T08:41:40.202Z,25.50
2023-04-09T08:44:46.471Z,26.75
2023-04-09T08:47:54.658Z,25.43
2023-04-09T08:51:02.366Z,24.52
2023-04-09T08:54:11.778Z,24.15
2023-04-09T08:57:21.046Z,29.90
2023-04-09T09:00:28.626Z,27.25
2023-04-09T09:03:36.738Z,24.57
2023-04-09T09:06:45.947Z,21.82
2023-04-09T09:09:52.995Z,19.12
2023-04-09T09:12:59.488Z,19.40
2023-04-09T09:16:07.052Z,20.55
2023-04-09T09:19:12.938Z,23.15
2023-04-09T09:22:21.589Z,26.05
2023-04-09T09:25:34.183Z,21.23
2023-04-09T09:28:40.626Z,20.40
2023-04-09T09:31:46.683Z,33.10
2023-04-09T09:34:52.943Z,29.07
2023-04-09T09:37:59.149Z,28.35
2023-04-09T09:41:06.879Z,38.83
2023-04-09T09:44:15.761Z,27.55
2023-04-09T09:47:23.481Z,25.12
2023-04-09T09:50:29.874Z,22.10
2023-04-09T09:53:35.447Z,25.27
2023-04-09T09:56:46.500Z,25.48
2023-04-09T09:59:55.834Z,19.37
2023-04-09T10:03:10.478Z,22.30
2023-04-09T10:06:17.127Z,29.65
2023-04-09T10:09:24.532Z,27.17
2023-04-09T10:12:35.373Z,26.77
2023-04-09T10:15:45.637Z,23.77
2023-04-09T10:18:50.768Z,19.70
2023-04-09T10:22:08.066Z,17.07
2023-04-09T10:25:14.132Z,19.05
2023-04-09T10:28:28.219Z,18.52
2023-04-09T10:31:34.657Z,23.10
2023-04-09T10:34:43.205Z,24.37
2023-04-09T10:37:49.519Z,19.17
2023-04-09T10:41:06.728Z,28.17
2023-04-09T10:44:12.678Z,15.88
2023-04-09T10:47:19.997Z,17.05
2023-04-09T10:50:37.770Z,17.07
2023-04-09T10:53:44.346Z,27.42
2023-04-09T10:56:51.114Z,14.60
2023-04-09T11:00:02.625Z,16.42
2023-04-09T11:03:22.769Z,19.15
2023-04-09T11:06:32.009Z,18.12
2023-04-09T11:09:39.643Z,14.43
2023-04-09T11:12:46.221Z,18.52
2023-04-09T11:15:52.036Z,13.30
2023-04-09T11:19:00.629Z,18.87
2023-04-09T11:22:07.002Z,12.88
2023-04-09T11:25:15.924Z,11.57
2023-04-09T11:28:22.985Z,15.28
2023-04-09T11:31:29.804Z,11.63
2023-04-09T11:34:37.136Z,10.28
2023-04-09T11:37:44.063Z,13.62
2023-04-09T11:40:57.988Z,16.97
2023-04-09T11:44:00.391Z,10.63
2023-04-09T11:47:09.734Z,11.08
2023-04-09T11:50:16.699Z,11.48
2023-04-09T11:53:37.473Z,10.15
2023-04-09T11:56:45.322Z,12.35
2023-04-09T11:59:53.751Z,12.35
2023-04-09T12:03:02.091Z,11.80
2023-04-09T12:06:08.424Z,10.20
2023-04-09T12:09:13.550Z,11.85
2023-04-09T12:12:22.728Z,10.72
2023-04-09T12:15:37.554Z,11.10
2023-04-09T12:18:42.501Z,8.90
2023-04-09T12:22:10.169Z,10.65
2023-04-09T12:25:16.277Z,8.75
2023-04-09T12:28:25.472Z,9.48
2023-04-09T12:31:31.540Z,13.22
2023-04-09T12:34:39.729Z,9.73
2023-04-09T12:37:47.727Z,10.58
2023-04-09T12:40:55.324Z,8.38
2023-04-09T12:44:00.858Z,8.90
2023-04-09T12:47:07.996Z,7.78
2023-04-09T12:50:14.078Z,11.22
2023-04-09T12:53:20.993Z,10.68
2023-04-09T12:56:29.765Z,10.65
2023-04-09T12:59:29.148Z,10.78
2023-04-09T13:02:36.433Z,17.05
2023-04-09T13:05:43.780Z,16.35
2023-04-09T13:08:50.036Z,11.83
2023-04-09T13:11:56.250Z,12.85
2023-04-09T13:15:03.772Z,16.40
2023-04-09T13:18:10.175Z,15.40
2023-04-09T13:21:16.157Z,17.15
2023-04-09T13:24:22.314Z,18.32
2023-04-09T13:27:29.222Z,13.48
2023-04-09T13:30:37.304Z,16.65
2023-04-09T13:33:43.737Z,14.10
2023-04-09T13:36:48.506Z,15.30
2023-04-09T13:39:55.025Z,16.67
2023-04-09T13:43:02.890Z,21.00
2023-04-09T13:46:11.352Z,18.23
2023-04-09T13:49:17.641Z,23.42
2023-04-09T13:52:26.839Z,20.57
2023-04-09T13:55:33.524Z,22.60
2023-04-09T13:58:40.652Z,26.73
2023-04-09T14:01:48.915Z,18.35
2023-04-09T14:04:56.963Z,18.30
2023-04-09T14:08:05.332Z,18.95
2023-04-09T14:11:11.270Z,24.10
2023-04-09T14:14:18.475Z,23.35
2023-04-09T14:17:25.680Z,22.93
2023-04-09T14:20:34.448Z,22.98
2023-04-09T14:23:43.242Z,29.12
2023-04-09T14:26:48.679Z,29.75
2023-04-09T14:29:55.786Z,29.45
2023-04-09T14:33:03.173Z,27.35
2023-04-09T14:36:09.084Z,26.40
2023-04-09T14:39:16.609Z,33.13
2023-04-09T14:42:21.627Z,25.80
2023-04-09T14:45:30.453Z,22.93
2023-04-09T14:48:38.336Z,26.20
2023-04-09T14:51:45.402Z,24.50
2023-04-09T14:54:54.235Z,21.00
2023-04-09T14:58:00.456Z,27.73
2023-04-09T15:01:06.515Z,25.57
2023-04-09T15:04:14.120Z,26.20
2023-04-09T15:07:21.834Z,24.20
2023-04-09T15:10:28.049Z,28.07
2023-04-09T15:13:33.624Z,24.60
2023-04-09T15:16:44.316Z,25.35
2023-04-09T15:19:49.833Z,27.77
2023-04-09T15:22:56.199Z,26.77
2023-04-09T15:26:03.225Z,23.77
2023-04-09T15:29:19.191Z,25.05
2023-04-09T15:32:26.310Z,24.67
2023-04-09T15:35:35.964Z,24.35
2023-04-09T15:38:42.324Z,24.63
2023-04-09T15:41:48.664Z,27.22
2023-04-09T15:44:54.913Z,25.90
2023-04-09T15:48:02.615Z,29.12
2023-04-09T15:51:09.676Z,29.23
2023-04-09T15:54:16.956Z,27.15
2023-04-09T15:57:24.352Z,28.85
2023-04-09T16:00:32.092Z,27.25
2023-04-09T16:03:40.706Z,25.10
2023-04-09T16:06:47.877Z,22.95
2023-04-09T16:09:54.254Z,25.65
2023-04-09T16:13:00.814Z,25.57
2023-04-09T16:16:09.068Z,25.27
2023-04-09T16:19:16.414Z,21.30
2023-04-09T16:22:23.479Z,22.62
2023-04-09T16:25:31.786Z,25.75
2023-04-09T16:28:38.475Z,23.12
2023-04-09T16:31:45.551Z,21.57
2023-04-09T16:34:51.364Z,19.73
2023-04-09T16:37:58.906Z,21.90
2023-04-09T16:41:04.973Z,20.77
2023-04-09T16:44:12.222Z,19.45
2023-04-09T16:47:20.190Z,21.45
2023-04-09T16:50:28.105Z,21.87
2023-04-09T16:53:33.504Z,21.17
2023-04-09T16:56:39.855Z,18.62
2023-04-09T16:59:47.102Z,20.15
2023-04-09T17:02:53.197Z,24.70
2023-04-09T17:06:01.672Z,19.37
2023-04-09T17:09:11.430Z,13.90
2023-04-09T17:12:19.314Z,14.78
2023-04-09T17:15:26.423Z,11.40
2023-04-09T17:18:34.363Z,8.75
2023-04-09T17:21:41.227Z,11.08
2023-04-09T17:24:46.190Z,8.53
2023-04-09T17:27:53.786Z,7.87
2023-04-09T17:30:59.863Z,9.38
2023-04-09T17:34:06.933Z,11.22
2023-04-09T17:37:14.943Z,7.40
2023-04-09T17:40:26.248Z,11.63
2023-04-09T17:43:35.734Z,15.68
2023-04-09T17:46:43.452Z,9.30
2023-04-09T17:49:49.882Z,8.80
2023-04-09T17:52:57.497Z,8.88
2023-04-09T17:56:04.334Z,10.80
2023-04-09T17:59:10.147Z,6.78
2023-04-09T18:02:16.759Z,7.62
2023-04-09T18:05:25.490Z,7.35
2023-04-09T18:08:32.251Z,8.78
2023-04-09T18:11:40.696Z,7.30
2023-04-09T18:14:46.454Z,6.12
2023-04-09T18:17:53.798Z,9.80
2023-04-09T18:20:59.894Z,8.15
2023-04-09T18:24:06.741Z,5.47
2023-04-09T18:27:15.386Z,10.28
2023-04-09T18:30:23.027Z,6.37
2023-04-09T18:33:29.834Z,11.22
2023-04-09T18:36:35.948Z,7.17
2023-04-09T18:39:43.245Z,9.15
2023-04-09T18:42:48.437Z,8.33
2023-04-09T18:45:54.755Z,9.45
2023-04-09T18:49:02.176Z,10.97
2023-04-09T18:52:12.568Z,11.60
2023-04-09T18:55:18.988Z,11.73
2023-04-09T18:58:24.346Z,13.22
2023-04-09T19:01:31.252Z,9.20
2023-04-09T19:04:39.804Z,9.80
2023-04-09T19:07:46.667Z,12.28
2023-04-09T19:10:54.082Z,12.75
2023-04-09T19:14:00.536Z,8.08
2023-04-09T19:17:08.917Z,9.15
2023-04-09T19:20:15.869Z,9.53
2023-04-09T19:23:21.100Z,10.13
2023-04-09T19:26:28.103Z,10.68
2023-04-09T19:29:34.599Z,8.75
2023-04-09T19:32:42.188Z,7.65
2023-04-09T19:35:48.106Z,13.18
2023-04-09T19:38:54.456Z,9.98
2023-04-09T19:42:00.999Z,14.30
2023-04-09T19:45:09.888Z,10.20
2023-04-09T19:48:16.120Z,10.05
2023-04-09T19:51:22.491Z,12.13
2023-04-09T19:54:28.489Z,10.48
2023-04-09T19:57:34.838Z,14.18
2023-04-09T20:00:44.491Z,30.45
2023-04-09T20:03:52.638Z,13.30
2023-04-09T20:06:59.077Z,12.95
2023-04-09T20:10:05.911Z,15.40
2023-04-09T20:13:14.897Z,10.48
2023-04-09T20:16:21.766Z,13.88
2023-04-09T20:19:29.206Z,12.80
2023-04-09T20:22:36.422Z,13.83
2023-04-09T20:25:43.818Z,12.68
2023-04-09T20:28:50.869Z,19.70
2023-04-09T20:31:59.061Z,16.95
2023-04-09T20:35:06.014Z,15.45
2023-04-09T20:38:11.862Z,17.15
2023-04-09T20:41:17.087Z,21.55
2023-04-09T20:44:23.506Z,19.25
2023-04-09T20:47:30.743Z,21.60
2023-04-09T20:50:38.037Z,15.20
2023-04-09T20:53:45.685Z,15.93
2023-04-09T20:56:51.122Z,16.87
2023-04-09T20:59:59.616Z,28.07
2023-04-09T21:03:07.060Z,19.62
2023-04-09T21:06:14.047Z,20.48
2023-04-09T21:09:20.668Z,16.93
2023-04-09T21:12:27.542Z,16.12
2023-04-09T21:15:34.772Z,17.87
2023-04-09T21:18:40.965Z,14.58
2023-04-09T21:21:50.883Z,16.05
2023-04-09T21:24:56.862Z,14.15
2023-04-09T21:28:04.772Z,17.90
2023-04-09T21:31:11.654Z,15.03
2023-04-09T21:34:17.749Z,18.25
2023-04-09T21:37:24.761Z,18.70
2023-04-09T21:40:30.223Z,15.10
2023-04-09T21:43:39.777Z,16.82
2023-04-09T21:46:44.645Z,19.87
2023-04-09T21:49:50.184Z,20.00
2023-04-09T21:52:56.086Z,15.65
2023-04-09T21:56:04.675Z,15.88
2023-04-09T21:59:09.343Z,20.45
2023-04-09T22:02:15.466Z,17.80
2023-04-09T22:05:22.016Z,21.23
2023-04-09T22:08:29.166Z,19.40
2023-04-09T22:11:35.121Z,17.60
2023-04-09T22:14:42.461Z,18.10
2023-04-09T22:17:48.923Z,18.62
2023-04-09T22:20:54.732Z,16.40
2023-04-09T22:24:00.758Z,17.23
2023-04-09T22:27:08.412Z,16.60
2023-04-09T22:30:16.573Z,19.37
2023-04-09T22:33:22.227Z,16.62
2023-04-09T22:36:28.526Z,15.48
2023-04-09T22:39:34.898Z,17.70
2023-04-09T22:42:41.367Z,13.95
2023-04-09T22:45:48.706Z,13.60
2023-04-09T22:49:04.183Z,14.18
2023-04-09T22:52:04.623Z,14.95
2023-04-09T22:55:11.550Z,16.62
2023-04-09T22:58:17.086Z,16.65
2023-04-09T23:01:25.502Z,14.70
2023-04-09T23:04:31.875Z,15.00
2023-04-09T23:07:38.196Z,16.50
2023-04-09T23:10:44.032Z,17.05
2023-04-09T23:13:50.182Z,13.38
2023-04-09T23:16:55.045Z,17.60
2023-04-09T23:20:01.600Z,14.70
2023-04-09T23:23:08.221Z,17.32
2023-04-09T23:26:16.864Z,16.95
2023-04-09T23:29:23.023Z,15.72
2023-04-09T23:32:30.514Z,14.28
2023-04-09T23:35:36.073Z,17.15
2023-04-09T23:38:44.775Z,12.75
2023-04-09T23:41:51.037Z,15.70
2023-04-09T23:44:56.949Z,16.50
2023-04-09T23:48:04.400Z,15.20
2023-04-09T23:51:11.951Z,17.25
2023-04-09T23:54:17.629Z,14.70
2023-04-09T23:57:25.504Z,14.28
